Dakar, Senegal
Current Conditions -  °F | °C
As of 1:00 AM on Sunday 23 Nov 2014 (Local Time) from GOOY Reporting Station
Scattered Clouds Scattered Clouds  
Wind Chill: 77°   Ceiling: Unl
Heat Index: 78°   Visibility: 6mi
Dew Point: 72°   Wind: 12mph
Humidity: 83%   Direction: 360°N
Pressure: 29.94"   Gusts: NA
Location:  14.72°N, 17.48°W
Report Text: GOOY 230100Z 36010KT 9999 SCT008 SCT130 25/22 Q1014 NOSIG
Loading
Personal Weather Stations






























Interactive Weather Map New forecast layout! Learn more

10-Day Weather Forecast

Advertisements
Track Severe Weather on mobile